sensor_id;sensor_type;location;lat;lon;timestamp;P1;durP1;ratioP1;P2;durP2;ratioP2
63089;SDS011;49174;43.198;27.824;2023-06-26T00:00:17;13.88;;;9.55;;
63089;SDS011;49174;43.198;27.824;2023-06-26T00:02:43;14.50;;;9.60;;
63089;SDS011;49174;43.198;27.824;2023-06-26T00:05:09;15.48;;;9.98;;
63089;SDS011;49174;43.198;27.824;2023-06-26T00:07:34;14.57;;;9.65;;
63089;SDS011;49174;43.198;27.824;2023-06-26T00:10:00;15.05;;;9.90;;
63089;SDS011;49174;43.198;27.824;2023-06-26T00:12:28;13.52;;;9.52;;
63089;SDS011;49174;43.198;27.824;2023-06-26T00:14:53;11.48;;;9.32;;
63089;SDS011;49174;43.198;27.824;2023-06-26T00:17:19;12.23;;;9.65;;
63089;SDS011;49174;43.198;27.824;2023-06-26T00:19:45;14.77;;;9.60;;
63089;SDS011;49174;43.198;27.824;2023-06-26T00:22:10;17.48;;;9.23;;
63089;SDS011;49174;43.198;27.824;2023-06-26T00:24:36;13.40;;;9.25;;
63089;SDS011;49174;43.198;27.824;2023-06-26T00:27:01;17.70;;;10.10;;
63089;SDS011;49174;43.198;27.824;2023-06-26T00:29:27;16.27;;;9.60;;
63089;SDS011;49174;43.198;27.824;2023-06-26T00:31:53;12.55;;;10.30;;
63089;SDS011;49174;43.198;27.824;2023-06-26T00:34:18;10.45;;;9.18;;
63089;SDS011;49174;43.198;27.824;2023-06-26T00:36:44;17.83;;;10.07;;
63089;SDS011;49174;43.198;27.824;2023-06-26T00:39:10;16.40;;;10.80;;
63089;SDS011;49174;43.198;27.824;2023-06-26T00:41:36;12.35;;;10.43;;
63089;SDS011;49174;43.198;27.824;2023-06-26T00:44:03;13.35;;;11.07;;
63089;SDS011;49174;43.198;27.824;2023-06-26T00:46:29;13.80;;;10.45;;
63089;SDS011;49174;43.198;27.824;2023-06-26T00:48:55;14.23;;;11.02;;
63089;SDS011;49174;43.198;27.824;2023-06-26T00:51:22;15.05;;;10.48;;
63089;SDS011;49174;43.198;27.824;2023-06-26T00:53:47;14.52;;;10.70;;
63089;SDS011;49174;43.198;27.824;2023-06-26T00:56:13;13.63;;;10.10;;
63089;SDS011;49174;43.198;27.824;2023-06-26T00:58:40;14.95;;;9.73;;
63089;SDS011;49174;43.198;27.824;2023-06-26T01:01:05;15.65;;;10.00;;
63089;SDS011;49174;43.198;27.824;2023-06-26T01:03:33;14.65;;;9.93;;
63089;SDS011;49174;43.198;27.824;2023-06-26T01:05:59;14.60;;;10.23;;
63089;SDS011;49174;43.198;27.824;2023-06-26T01:08:25;12.88;;;9.20;;
63089;SDS011;49174;43.198;27.824;2023-06-26T01:10:52;12.02;;;9.40;;
63089;SDS011;49174;43.198;27.824;2023-06-26T01:13:18;10.55;;;9.45;;
63089;SDS011;49174;43.198;27.824;2023-06-26T01:15:44;15.15;;;9.43;;
63089;SDS011;49174;43.198;27.824;2023-06-26T01:18:11;13.90;;;9.82;;
63089;SDS011;49174;43.198;27.824;2023-06-26T01:20:37;13.95;;;9.00;;
63089;SDS011;49174;43.198;27.824;2023-06-26T01:23:14;14.88;;;9.20;;
63089;SDS011;49174;43.198;27.824;2023-06-26T01:28:45;16.08;;;8.98;;
63089;SDS011;49174;43.198;27.824;2023-06-26T01:31:12;14.75;;;8.90;;
63089;SDS011;49174;43.198;27.824;2023-06-26T01:33:39;11.85;;;8.48;;
63089;SDS011;49174;43.198;27.824;2023-06-26T01:36:06;15.98;;;9.07;;
63089;SDS011;49174;43.198;27.824;2023-06-26T01:38:32;17.58;;;8.93;;
63089;SDS011;49174;43.198;27.824;2023-06-26T01:40:59;12.02;;;7.95;;
63089;SDS011;49174;43.198;27.824;2023-06-26T01:45:55;10.70;;;8.02;;
63089;SDS011;49174;43.198;27.824;2023-06-26T01:48:28;11.95;;;7.68;;
63089;SDS011;49174;43.198;27.824;2023-06-26T01:50:58;10.02;;;7.88;;
63089;SDS011;49174;43.198;27.824;2023-06-26T01:53:25;9.00;;;7.35;;
63089;SDS011;49174;43.198;27.824;2023-06-26T01:56:03;13.20;;;7.63;;
63089;SDS011;49174;43.198;27.824;2023-06-26T01:58:33;12.65;;;7.07;;
63089;SDS011;49174;43.198;27.824;2023-06-26T02:01:01;10.98;;;6.78;;
63089;SDS011;49174;43.198;27.824;2023-06-26T02:03:27;11.60;;;7.13;;
63089;SDS011;49174;43.198;27.824;2023-06-26T02:05:53;12.13;;;7.10;;
63089;SDS011;49174;43.198;27.824;2023-06-26T02:08:18;15.07;;;7.50;;
63089;SDS011;49174;43.198;27.824;2023-06-26T02:10:44;16.48;;;6.80;;
63089;SDS011;49174;43.198;27.824;2023-06-26T02:13:09;9.85;;;7.00;;
63089;SDS011;49174;43.198;27.824;2023-06-26T02:15:35;10.02;;;7.03;;
63089;SDS011;49174;43.198;27.824;2023-06-26T02:18:00;13.00;;;6.53;;
63089;SDS011;49174;43.198;27.824;2023-06-26T02:20:26;11.40;;;6.97;;
63089;SDS011;49174;43.198;27.824;2023-06-26T02:22:53;12.23;;;7.20;;
63089;SDS011;49174;43.198;27.824;2023-06-26T02:25:18;12.27;;;6.78;;
63089;SDS011;49174;43.198;27.824;2023-06-26T02:27:44;13.63;;;7.00;;
63089;SDS011;49174;43.198;27.824;2023-06-26T02:30:09;9.68;;;7.35;;
63089;SDS011;49174;43.198;27.824;2023-06-26T02:32:35;11.05;;;7.35;;
63089;SDS011;49174;43.198;27.824;2023-06-26T02:35:01;14.00;;;7.28;;
63089;SDS011;49174;43.198;27.824;2023-06-26T02:37:27;10.07;;;7.97;;
63089;SDS011;49174;43.198;27.824;2023-06-26T02:39:53;12.55;;;8.40;;
63089;SDS011;49174;43.198;27.824;2023-06-26T02:42:19;13.38;;;8.75;;
63089;SDS011;49174;43.198;27.824;2023-06-26T02:44:44;10.13;;;7.85;;
63089;SDS011;49174;43.198;27.824;2023-06-26T02:47:09;12.82;;;8.13;;
63089;SDS011;49174;43.198;27.824;2023-06-26T02:49:35;11.75;;;8.25;;
63089;SDS011;49174;43.198;27.824;2023-06-26T02:52:00;15.43;;;9.90;;
63089;SDS011;49174;43.198;27.824;2023-06-26T02:54:26;12.75;;;8.27;;
63089;SDS011;49174;43.198;27.824;2023-06-26T02:56:52;14.23;;;9.48;;
63089;SDS011;49174;43.198;27.824;2023-06-26T02:59:18;13.25;;;9.13;;
63089;SDS011;49174;43.198;27.824;2023-06-26T03:01:43;18.00;;;9.75;;
63089;SDS011;49174;43.198;27.824;2023-06-26T03:04:09;15.63;;;10.30;;
63089;SDS011;49174;43.198;27.824;2023-06-26T03:06:35;20.70;;;9.88;;
63089;SDS011;49174;43.198;27.824;2023-06-26T03:09:01;15.98;;;9.40;;
63089;SDS011;49174;43.198;27.824;2023-06-26T03:11:27;11.70;;;9.27;;
63089;SDS011;49174;43.198;27.824;2023-06-26T03:13:53;12.30;;;9.98;;
63089;SDS011;49174;43.198;27.824;2023-06-26T03:16:18;14.10;;;10.23;;
63089;SDS011;49174;43.198;27.824;2023-06-26T03:18:44;16.75;;;10.32;;
63089;SDS011;49174;43.198;27.824;2023-06-26T03:21:09;15.70;;;11.25;;
63089;SDS011;49174;43.198;27.824;2023-06-26T03:23:35;16.60;;;10.60;;
63089;SDS011;49174;43.198;27.824;2023-06-26T03:26:00;16.10;;;10.85;;
63089;SDS011;49174;43.198;27.824;2023-06-26T03:28:26;12.73;;;10.27;;
63089;SDS011;49174;43.198;27.824;2023-06-26T03:30:51;16.70;;;10.00;;
63089;SDS011;49174;43.198;27.824;2023-06-26T03:33:17;15.52;;;10.60;;
63089;SDS011;49174;43.198;27.824;2023-06-26T03:35:42;19.38;;;11.77;;
63089;SDS011;49174;43.198;27.824;2023-06-26T03:38:08;15.85;;;11.07;;
63089;SDS011;49174;43.198;27.824;2023-06-26T03:40:33;14.45;;;11.90;;
63089;SDS011;49174;43.198;27.824;2023-06-26T03:42:59;19.45;;;11.52;;
63089;SDS011;49174;43.198;27.824;2023-06-26T03:45:24;15.32;;;11.13;;
63089;SDS011;49174;43.198;27.824;2023-06-26T03:47:50;15.07;;;10.65;;
63089;SDS011;49174;43.198;27.824;2023-06-26T03:50:16;14.18;;;10.80;;
63089;SDS011;49174;43.198;27.824;2023-06-26T03:52:42;15.98;;;11.15;;
63089;SDS011;49174;43.198;27.824;2023-06-26T03:55:07;17.65;;;11.55;;
63089;SDS011;49174;43.198;27.824;2023-06-26T03:57:33;20.63;;;12.73;;
63089;SDS011;49174;43.198;27.824;2023-06-26T03:59:59;19.27;;;12.63;;
63089;SDS011;49174;43.198;27.824;2023-06-26T04:02:25;18.08;;;10.65;;
63089;SDS011;49174;43.198;27.824;2023-06-26T04:04:50;14.98;;;10.82;;
63089;SDS011;49174;43.198;27.824;2023-06-26T04:07:17;19.98;;;14.50;;
63089;SDS011;49174;43.198;27.824;2023-06-26T04:09:43;21.80;;;12.82;;
63089;SDS011;49174;43.198;27.824;2023-06-26T04:12:08;15.25;;;12.05;;
63089;SDS011;49174;43.198;27.824;2023-06-26T04:14:34;18.95;;;11.50;;
63089;SDS011;49174;43.198;27.824;2023-06-26T04:17:00;16.38;;;10.95;;
63089;SDS011;49174;43.198;27.824;2023-06-26T04:19:28;13.45;;;11.00;;
63089;SDS011;49174;43.198;27.824;2023-06-26T04:21:54;16.48;;;11.45;;
63089;SDS011;49174;43.198;27.824;2023-06-26T04:24:20;16.75;;;10.95;;
63089;SDS011;49174;43.198;27.824;2023-06-26T04:26:45;17.38;;;11.23;;
63089;SDS011;49174;43.198;27.824;2023-06-26T04:29:11;14.02;;;10.80;;
63089;SDS011;49174;43.198;27.824;2023-06-26T04:31:36;13.52;;;10.23;;
63089;SDS011;49174;43.198;27.824;2023-06-26T04:34:03;16.02;;;10.70;;
63089;SDS011;49174;43.198;27.824;2023-06-26T04:36:29;16.23;;;11.27;;
63089;SDS011;49174;43.198;27.824;2023-06-26T04:38:56;16.77;;;11.13;;
63089;SDS011;49174;43.198;27.824;2023-06-26T04:41:22;15.93;;;10.30;;
63089;SDS011;49174;43.198;27.824;2023-06-26T04:43:48;17.45;;;10.82;;
63089;SDS011;49174;43.198;27.824;2023-06-26T04:46:13;15.50;;;11.10;;
63089;SDS011;49174;43.198;27.824;2023-06-26T04:48:39;12.50;;;10.85;;
63089;SDS011;49174;43.198;27.824;2023-06-26T04:51:04;12.68;;;10.07;;
63089;SDS011;49174;43.198;27.824;2023-06-26T04:53:30;11.65;;;8.88;;
63089;SDS011;49174;43.198;27.824;2023-06-26T04:55:55;11.63;;;8.45;;
63089;SDS011;49174;43.198;27.824;2023-06-26T04:58:21;10.93;;;8.48;;
63089;SDS011;49174;43.198;27.824;2023-06-26T05:00:46;12.43;;;8.18;;
63089;SDS011;49174;43.198;27.824;2023-06-26T05:03:14;9.93;;;7.60;;
63089;SDS011;49174;43.198;27.824;2023-06-26T05:05:42;13.77;;;8.85;;
63089;SDS011;49174;43.198;27.824;2023-06-26T05:08:18;10.93;;;7.97;;
63089;SDS011;49174;43.198;27.824;2023-06-26T05:10:45;10.25;;;7.65;;
63089;SDS011;49174;43.198;27.824;2023-06-26T05:13:11;9.32;;;6.78;;
63089;SDS011;49174;43.198;27.824;2023-06-26T05:15:40;7.20;;;6.35;;
63089;SDS011;49174;43.198;27.824;2023-06-26T05:18:06;6.93;;;5.63;;
63089;SDS011;49174;43.198;27.824;2023-06-26T05:20:32;7.38;;;5.90;;
63089;SDS011;49174;43.198;27.824;2023-06-26T05:22:59;9.07;;;6.20;;
63089;SDS011;49174;43.198;27.824;2023-06-26T05:25:25;9.93;;;5.57;;
63089;SDS011;49174;43.198;27.824;2023-06-26T05:27:52;7.20;;;4.93;;
63089;SDS011;49174;43.198;27.824;2023-06-26T05:30:18;8.52;;;5.88;;
63089;SDS011;49174;43.198;27.824;2023-06-26T05:32:44;5.13;;;4.40;;
63089;SDS011;49174;43.198;27.824;2023-06-26T05:35:12;4.40;;;3.40;;
63089;SDS011;49174;43.198;27.824;2023-06-26T05:37:38;6.20;;;3.88;;
63089;SDS011;49174;43.198;27.824;2023-06-26T05:40:05;5.28;;;3.60;;
63089;SDS011;49174;43.198;27.824;2023-06-26T05:42:32;6.97;;;5.25;;
63089;SDS011;49174;43.198;27.824;2023-06-26T05:44:59;4.03;;;3.33;;
63089;SDS011;49174;43.198;27.824;2023-06-26T05:47:24;8.38;;;3.47;;
63089;SDS011;49174;43.198;27.824;2023-06-26T05:49:50;5.78;;;3.17;;
63089;SDS011;49174;43.198;27.824;2023-06-26T05:52:15;3.83;;;3.10;;
63089;SDS011;49174;43.198;27.824;2023-06-26T05:54:41;4.30;;;3.30;;
63089;SDS011;49174;43.198;27.824;2023-06-26T05:57:07;4.60;;;3.63;;
63089;SDS011;49174;43.198;27.824;2023-06-26T05:59:32;11.52;;;8.23;;
63089;SDS011;49174;43.198;27.824;2023-06-26T06:02:01;8.57;;;6.65;;
63089;SDS011;49174;43.198;27.824;2023-06-26T06:04:27;6.65;;;4.60;;
63089;SDS011;49174;43.198;27.824;2023-06-26T06:06:52;5.22;;;4.15;;
63089;SDS011;49174;43.198;27.824;2023-06-26T06:09:18;6.60;;;4.25;;
63089;SDS011;49174;43.198;27.824;2023-06-26T06:11:43;5.97;;;4.43;;
63089;SDS011;49174;43.198;27.824;2023-06-26T06:14:09;5.82;;;4.15;;
63089;SDS011;49174;43.198;27.824;2023-06-26T06:16:34;6.53;;;4.75;;
63089;SDS011;49174;43.198;27.824;2023-06-26T06:19:00;6.70;;;5.60;;
63089;SDS011;49174;43.198;27.824;2023-06-26T06:21:28;9.30;;;6.07;;
63089;SDS011;49174;43.198;27.824;2023-06-26T06:23:54;6.15;;;5.55;;
63089;SDS011;49174;43.198;27.824;2023-06-26T06:26:19;7.78;;;6.25;;
63089;SDS011;49174;43.198;27.824;2023-06-26T06:28:45;8.10;;;5.65;;
63089;SDS011;49174;43.198;27.824;2023-06-26T06:31:10;9.52;;;6.32;;
63089;SDS011;49174;43.198;27.824;2023-06-26T06:33:36;8.57;;;7.28;;
63089;SDS011;49174;43.198;27.824;2023-06-26T06:36:01;8.73;;;7.68;;
63089;SDS011;49174;43.198;27.824;2023-06-26T06:38:27;9.88;;;7.25;;
63089;SDS011;49174;43.198;27.824;2023-06-26T06:40:52;12.48;;;7.78;;
63089;SDS011;49174;43.198;27.824;2023-06-26T06:43:18;10.02;;;7.53;;
63089;SDS011;49174;43.198;27.824;2023-06-26T06:45:45;10.35;;;7.97;;
63089;SDS011;49174;43.198;27.824;2023-06-26T06:48:11;12.40;;;9.07;;
63089;SDS011;49174;43.198;27.824;2023-06-26T06:50:36;11.63;;;8.20;;
63089;SDS011;49174;43.198;27.824;2023-06-26T06:53:02;9.52;;;7.80;;
63089;SDS011;49174;43.198;27.824;2023-06-26T06:55:27;9.10;;;7.38;;
63089;SDS011;49174;43.198;27.824;2023-06-26T06:57:53;9.77;;;7.10;;
63089;SDS011;49174;43.198;27.824;2023-06-26T07:00:18;12.50;;;7.07;;
63089;SDS011;49174;43.198;27.824;2023-06-26T07:02:45;7.95;;;6.47;;
63089;SDS011;49174;43.198;27.824;2023-06-26T07:05:11;10.50;;;6.85;;
63089;SDS011;49174;43.198;27.824;2023-06-26T07:07:38;9.77;;;6.88;;
63089;SDS011;49174;43.198;27.824;2023-06-26T07:10:08;8.48;;;6.10;;
63089;SDS011;49174;43.198;27.824;2023-06-26T07:12:36;7.35;;;6.57;;
63089;SDS011;49174;43.198;27.824;2023-06-26T07:15:02;10.18;;;6.35;;
63089;SDS011;49174;43.198;27.824;2023-06-26T07:17:30;8.35;;;6.25;;
63089;SDS011;49174;43.198;27.824;2023-06-26T07:19:59;8.23;;;6.22;;
63089;SDS011;49174;43.198;27.824;2023-06-26T07:22:26;10.55;;;6.85;;
63089;SDS011;49174;43.198;27.824;2023-06-26T07:24:51;9.10;;;6.75;;
63089;SDS011;49174;43.198;27.824;2023-06-26T07:27:17;7.15;;;6.45;;
63089;SDS011;49174;43.198;27.824;2023-06-26T07:29:44;7.97;;;6.28;;
63089;SDS011;49174;43.198;27.824;2023-06-26T07:32:10;11.63;;;6.55;;
63089;SDS011;49174;43.198;27.824;2023-06-26T07:34:36;7.13;;;6.13;;
63089;SDS011;49174;43.198;27.824;2023-06-26T07:37:01;6.43;;;5.57;;
63089;SDS011;49174;43.198;27.824;2023-06-26T07:39:27;14.55;;;8.63;;
63089;SDS011;49174;43.198;27.824;2023-06-26T07:41:53;9.75;;;6.63;;
63089;SDS011;49174;43.198;27.824;2023-06-26T07:44:20;8.52;;;6.25;;
63089;SDS011;49174;43.198;27.824;2023-06-26T07:46:45;6.72;;;5.63;;
63089;SDS011;49174;43.198;27.824;2023-06-26T07:49:11;8.75;;;5.72;;
63089;SDS011;49174;43.198;27.824;2023-06-26T07:51:37;9.23;;;6.13;;
63089;SDS011;49174;43.198;27.824;2023-06-26T07:54:03;7.43;;;5.95;;
63089;SDS011;49174;43.198;27.824;2023-06-26T07:56:28;7.55;;;5.55;;
63089;SDS011;49174;43.198;27.824;2023-06-26T07:58:53;8.35;;;5.32;;
63089;SDS011;49174;43.198;27.824;2023-06-26T08:01:19;6.38;;;5.30;;
63089;SDS011;49174;43.198;27.824;2023-06-26T08:03:46;7.15;;;5.25;;
63089;SDS011;49174;43.198;27.824;2023-06-26T08:06:11;5.53;;;4.53;;
63089;SDS011;49174;43.198;27.824;2023-06-26T08:08:37;6.68;;;5.47;;
63089;SDS011;49174;43.198;27.824;2023-06-26T08:11:02;10.00;;;5.47;;
63089;SDS011;49174;43.198;27.824;2023-06-26T08:13:28;7.53;;;5.35;;
63089;SDS011;49174;43.198;27.824;2023-06-26T08:15:54;6.28;;;4.75;;
63089;SDS011;49174;43.198;27.824;2023-06-26T08:18:19;5.93;;;4.95;;
63089;SDS011;49174;43.198;27.824;2023-06-26T08:20:45;8.10;;;4.75;;
63089;SDS011;49174;43.198;27.824;2023-06-26T08:23:11;8.30;;;4.93;;
63089;SDS011;49174;43.198;27.824;2023-06-26T08:25:36;6.93;;;4.68;;
63089;SDS011;49174;43.198;27.824;2023-06-26T08:28:02;8.20;;;4.95;;
63089;SDS011;49174;43.198;27.824;2023-06-26T08:30:28;7.25;;;4.45;;
63089;SDS011;49174;43.198;27.824;2023-06-26T08:32:54;9.00;;;5.57;;
63089;SDS011;49174;43.198;27.824;2023-06-26T08:35:21;11.45;;;5.13;;
63089;SDS011;49174;43.198;27.824;2023-06-26T08:37:46;8.00;;;5.20;;
63089;SDS011;49174;43.198;27.824;2023-06-26T08:40:12;8.52;;;4.60;;
63089;SDS011;49174;43.198;27.824;2023-06-26T08:42:37;7.95;;;5.15;;
63089;SDS011;49174;43.198;27.824;2023-06-26T08:45:03;5.78;;;4.43;;
63089;SDS011;49174;43.198;27.824;2023-06-26T08:47:29;7.93;;;4.57;;
63089;SDS011;49174;43.198;27.824;2023-06-26T08:50:01;22.95;;;5.28;;
63089;SDS011;49174;43.198;27.824;2023-06-26T08:52:37;5.20;;;3.92;;
63089;SDS011;49174;43.198;27.824;2023-06-26T08:55:10;5.32;;;4.40;;
63089;SDS011;49174;43.198;27.824;2023-06-26T08:57:37;7.32;;;4.40;;
63089;SDS011;49174;43.198;27.824;2023-06-26T09:00:04;7.53;;;4.60;;
63089;SDS011;49174;43.198;27.824;2023-06-26T09:02:30;10.93;;;4.38;;
63089;SDS011;49174;43.198;27.824;2023-06-26T09:04:56;8.60;;;4.10;;
63089;SDS011;49174;43.198;27.824;2023-06-26T09:07:22;8.30;;;4.60;;
63089;SDS011;49174;43.198;27.824;2023-06-26T09:09:47;6.15;;;4.15;;
63089;SDS011;49174;43.198;27.824;2023-06-26T09:12:13;6.20;;;4.30;;
63089;SDS011;49174;43.198;27.824;2023-06-26T09:14:38;6.20;;;4.13;;
63089;SDS011;49174;43.198;27.824;2023-06-26T09:17:05;6.15;;;4.32;;
63089;SDS011;49174;43.198;27.824;2023-06-26T09:19:30;6.43;;;4.30;;
63089;SDS011;49174;43.198;27.824;2023-06-26T09:21:55;6.78;;;4.75;;
63089;SDS011;49174;43.198;27.824;2023-06-26T09:24:21;8.68;;;4.35;;
63089;SDS011;49174;43.198;27.824;2023-06-26T09:26:47;6.00;;;4.28;;
63089;SDS011;49174;43.198;27.824;2023-06-26T09:29:14;5.72;;;4.20;;
63089;SDS011;49174;43.198;27.824;2023-06-26T09:31:40;6.50;;;3.72;;
63089;SDS011;49174;43.198;27.824;2023-06-26T09:34:06;5.68;;;4.32;;
63089;SDS011;49174;43.198;27.824;2023-06-26T09:36:32;6.18;;;4.40;;
63089;SDS011;49174;43.198;27.824;2023-06-26T09:39:03;7.18;;;3.97;;
63089;SDS011;49174;43.198;27.824;2023-06-26T09:41:29;5.45;;;3.97;;
63089;SDS011;49174;43.198;27.824;2023-06-26T09:43:57;4.20;;;3.80;;
63089;SDS011;49174;43.198;27.824;2023-06-26T09:46:30;4.38;;;3.60;;
63089;SDS011;49174;43.198;27.824;2023-06-26T09:51:33;4.63;;;3.90;;
63089;SDS011;49174;43.198;27.824;2023-06-26T09:54:01;7.20;;;3.65;;
63089;SDS011;49174;43.198;27.824;2023-06-26T09:56:28;5.63;;;3.72;;
63089;SDS011;49174;43.198;27.824;2023-06-26T09:58:58;5.70;;;4.05;;
63089;SDS011;49174;43.198;27.824;2023-06-26T10:01:26;5.88;;;3.95;;
63089;SDS011;49174;43.198;27.824;2023-06-26T10:03:56;6.05;;;3.85;;
63089;SDS011;49174;43.198;27.824;2023-06-26T10:06:24;4.05;;;3.17;;
63089;SDS011;49174;43.198;27.824;2023-06-26T10:08:54;5.40;;;3.50;;
63089;SDS011;49174;43.198;27.824;2023-06-26T10:11:21;5.30;;;3.13;;
63089;SDS011;49174;43.198;27.824;2023-06-26T10:13:51;3.72;;;2.83;;
63089;SDS011;49174;43.198;27.824;2023-06-26T10:16:26;4.07;;;3.08;;
63089;SDS011;49174;43.198;27.824;2023-06-26T10:21:22;4.07;;;2.83;;
63089;SDS011;49174;43.198;27.824;2023-06-26T10:23:49;4.93;;;3.28;;
63089;SDS011;49174;43.198;27.824;2023-06-26T10:26:17;4.50;;;3.58;;
63089;SDS011;49174;43.198;27.824;2023-06-26T10:28:46;3.85;;;2.90;;
63089;SDS011;49174;43.198;27.824;2023-06-26T10:31:17;3.63;;;2.60;;
63089;SDS011;49174;43.198;27.824;2023-06-26T10:33:45;3.47;;;2.58;;
63089;SDS011;49174;43.198;27.824;2023-06-26T10:36:14;7.55;;;2.75;;
63089;SDS011;49174;43.198;27.824;2023-06-26T10:38:51;5.70;;;2.97;;
63089;SDS011;49174;43.198;27.824;2023-06-26T10:41:21;3.88;;;2.95;;
63089;SDS011;49174;43.198;27.824;2023-06-26T10:43:52;7.40;;;2.78;;
63089;SDS011;49174;43.198;27.824;2023-06-26T10:46:48;4.03;;;2.53;;
63089;SDS011;49174;43.198;27.824;2023-06-26T10:49:13;3.45;;;2.08;;
63089;SDS011;49174;43.198;27.824;2023-06-26T10:51:39;4.50;;;2.70;;
63089;SDS011;49174;43.198;27.824;2023-06-26T10:54:13;5.28;;;2.97;;
63089;SDS011;49174;43.198;27.824;2023-06-26T10:56:40;3.75;;;2.40;;
63089;SDS011;49174;43.198;27.824;2023-06-26T10:59:13;5.70;;;2.40;;
63089;SDS011;49174;43.198;27.824;2023-06-26T11:01:41;3.35;;;2.22;;
63089;SDS011;49174;43.198;27.824;2023-06-26T11:04:11;3.67;;;2.10;;
63089;SDS011;49174;43.198;27.824;2023-06-26T11:06:39;5.07;;;2.70;;
63089;SDS011;49174;43.198;27.824;2023-06-26T11:14:25;4.70;;;2.25;;
63089;SDS011;49174;43.198;27.824;2023-06-26T11:16:54;3.42;;;2.20;;
63089;SDS011;49174;43.198;27.824;2023-06-26T11:19:21;5.63;;;2.50;;
63089;SDS011;49174;43.198;27.824;2023-06-26T11:21:47;6.75;;;2.72;;
63089;SDS011;49174;43.198;27.824;2023-06-26T11:24:13;5.55;;;3.53;;
63089;SDS011;49174;43.198;27.824;2023-06-26T11:29:05;6.15;;;2.80;;
63089;SDS011;49174;43.198;27.824;2023-06-26T11:31:35;3.65;;;2.60;;
63089;SDS011;49174;43.198;27.824;2023-06-26T11:34:03;4.07;;;2.70;;
63089;SDS011;49174;43.198;27.824;2023-06-26T11:36:33;4.65;;;2.88;;
63089;SDS011;49174;43.198;27.824;2023-06-26T11:39:03;3.65;;;2.78;;
63089;SDS011;49174;43.198;27.824;2023-06-26T11:41:34;3.85;;;2.17;;
63089;SDS011;49174;43.198;27.824;2023-06-26T11:44:01;3.88;;;2.45;;
63089;SDS011;49174;43.198;27.824;2023-06-26T11:46:27;3.55;;;2.38;;
63089;SDS011;49174;43.198;27.824;2023-06-26T11:48:53;3.75;;;2.67;;
63089;SDS011;49174;43.198;27.824;2023-06-26T11:51:19;3.08;;;2.35;;
63089;SDS011;49174;43.198;27.824;2023-06-26T11:53:46;3.55;;;2.28;;
63089;SDS011;49174;43.198;27.824;2023-06-26T11:56:13;4.15;;;2.30;;
63089;SDS011;49174;43.198;27.824;2023-06-26T12:01:33;3.83;;;2.50;;
63089;SDS011;49174;43.198;27.824;2023-06-26T12:04:01;4.88;;;2.60;;
63089;SDS011;49174;43.198;27.824;2023-06-26T12:06:29;2.83;;;2.08;;
63089;SDS011;49174;43.198;27.824;2023-06-26T12:08:56;4.70;;;2.35;;
63089;SDS011;49174;43.198;27.824;2023-06-26T12:11:23;3.08;;;2.20;;
63089;SDS011;49174;43.198;27.824;2023-06-26T12:13:49;5.93;;;2.90;;
63089;SDS011;49174;43.198;27.824;2023-06-26T12:16:16;3.35;;;2.03;;
63089;SDS011;49174;43.198;27.824;2023-06-26T12:18:41;4.05;;;2.33;;
63089;SDS011;49174;43.198;27.824;2023-06-26T12:21:07;3.08;;;2.42;;
63089;SDS011;49174;43.198;27.824;2023-06-26T12:23:39;3.47;;;2.30;;
63089;SDS011;49174;43.198;27.824;2023-06-26T12:26:20;7.35;;;3.78;;
63089;SDS011;49174;43.198;27.824;2023-06-26T12:28:46;7.57;;;4.82;;
63089;SDS011;49174;43.198;27.824;2023-06-26T12:31:15;6.97;;;4.90;;
63089;SDS011;49174;43.198;27.824;2023-06-26T12:33:44;9.27;;;4.78;;
63089;SDS011;49174;43.198;27.824;2023-06-26T12:36:10;6.60;;;4.82;;
63089;SDS011;49174;43.198;27.824;2023-06-26T12:38:40;5.70;;;4.25;;
63089;SDS011;49174;43.198;27.824;2023-06-26T12:41:12;8.15;;;4.80;;
63089;SDS011;49174;43.198;27.824;2023-06-26T12:43:41;7.43;;;4.82;;
63089;SDS011;49174;43.198;27.824;2023-06-26T12:46:08;7.18;;;4.85;;
63089;SDS011;49174;43.198;27.824;2023-06-26T12:48:43;5.30;;;4.70;;
63089;SDS011;49174;43.198;27.824;2023-06-26T12:51:12;7.72;;;5.03;;
63089;SDS011;49174;43.198;27.824;2023-06-26T12:53:38;5.63;;;4.60;;
63089;SDS011;49174;43.198;27.824;2023-06-26T12:56:07;6.22;;;4.40;;
63089;SDS011;49174;43.198;27.824;2023-06-26T12:58:34;9.98;;;5.05;;
63089;SDS011;49174;43.198;27.824;2023-06-26T13:01:04;6.55;;;4.82;;
63089;SDS011;49174;43.198;27.824;2023-06-26T13:03:32;8.73;;;4.80;;
63089;SDS011;49174;43.198;27.824;2023-06-26T13:05:58;6.40;;;4.90;;
63089;SDS011;49174;43.198;27.824;2023-06-26T13:08:23;5.88;;;4.40;;
63089;SDS011;49174;43.198;27.824;2023-06-26T13:10:49;6.53;;;4.47;;
63089;SDS011;49174;43.198;27.824;2023-06-26T13:13:14;5.03;;;4.30;;
63089;SDS011;49174;43.198;27.824;2023-06-26T13:15:40;7.72;;;4.25;;
63089;SDS011;49174;43.198;27.824;2023-06-26T13:18:05;6.05;;;4.30;;
63089;SDS011;49174;43.198;27.824;2023-06-26T13:20:31;5.72;;;4.63;;
63089;SDS011;49174;43.198;27.824;2023-06-26T13:22:56;5.85;;;4.72;;
63089;SDS011;49174;43.198;27.824;2023-06-26T13:25:22;5.38;;;4.47;;
63089;SDS011;49174;43.198;27.824;2023-06-26T13:27:48;5.13;;;4.55;;
63089;SDS011;49174;43.198;27.824;2023-06-26T13:30:14;7.97;;;5.03;;
63089;SDS011;49174;43.198;27.824;2023-06-26T13:32:40;6.10;;;4.47;;
63089;SDS011;49174;43.198;27.824;2023-06-26T13:35:06;5.40;;;3.97;;
63089;SDS011;49174;43.198;27.824;2023-06-26T13:37:32;6.43;;;4.70;;
63089;SDS011;49174;43.198;27.824;2023-06-26T13:40:00;6.65;;;4.57;;
63089;SDS011;49174;43.198;27.824;2023-06-26T13:42:27;6.95;;;4.30;;
63089;SDS011;49174;43.198;27.824;2023-06-26T13:44:53;5.38;;;4.15;;
63089;SDS011;49174;43.198;27.824;2023-06-26T13:47:19;8.68;;;4.30;;
63089;SDS011;49174;43.198;27.824;2023-06-26T13:49:44;6.00;;;4.88;;
63089;SDS011;49174;43.198;27.824;2023-06-26T13:52:10;6.32;;;4.30;;
63089;SDS011;49174;43.198;27.824;2023-06-26T13:54:36;6.57;;;4.88;;
63089;SDS011;49174;43.198;27.824;2023-06-26T13:57:04;6.80;;;4.68;;
63089;SDS011;49174;43.198;27.824;2023-06-26T13:59:30;7.18;;;5.13;;
63089;SDS011;49174;43.198;27.824;2023-06-26T14:01:56;6.07;;;4.30;;
63089;SDS011;49174;43.198;27.824;2023-06-26T14:04:21;6.90;;;4.78;;
63089;SDS011;49174;43.198;27.824;2023-06-26T14:06:47;7.88;;;4.15;;
63089;SDS011;49174;43.198;27.824;2023-06-26T14:09:12;6.50;;;4.85;;
63089;SDS011;49174;43.198;27.824;2023-06-26T14:11:38;5.47;;;4.47;;
63089;SDS011;49174;43.198;27.824;2023-06-26T14:14:04;6.35;;;4.30;;
63089;SDS011;49174;43.198;27.824;2023-06-26T14:16:29;6.57;;;4.50;;
63089;SDS011;49174;43.198;27.824;2023-06-26T14:18:55;6.10;;;4.63;;
63089;SDS011;49174;43.198;27.824;2023-06-26T14:21:21;5.45;;;4.75;;
63089;SDS011;49174;43.198;27.824;2023-06-26T14:23:47;7.45;;;4.22;;
63089;SDS011;49174;43.198;27.824;2023-06-26T14:26:12;4.72;;;4.13;;
63089;SDS011;49174;43.198;27.824;2023-06-26T14:28:38;4.72;;;3.80;;
63089;SDS011;49174;43.198;27.824;2023-06-26T14:31:04;6.38;;;4.30;;
63089;SDS011;49174;43.198;27.824;2023-06-26T14:33:30;4.78;;;3.78;;
63089;SDS011;49174;43.198;27.824;2023-06-26T14:35:56;4.85;;;4.03;;
63089;SDS011;49174;43.198;27.824;2023-06-26T14:38:21;8.45;;;4.63;;
63089;SDS011;49174;43.198;27.824;2023-06-26T14:40:47;4.65;;;3.55;;
63089;SDS011;49174;43.198;27.824;2023-06-26T14:43:12;6.55;;;4.15;;
63089;SDS011;49174;43.198;27.824;2023-06-26T14:45:38;6.25;;;4.25;;